Latest Weather Observations for Warra

IDT60801

Issued at 4:02 pm EDT Monday 2 March 2015 (issued every 30 minutes, with the page automatically refreshed every 10 minutes)

About weather observations | Map of weather stations | Latest weather observations for TAS | Other Formats
Station Details ID: 097024 Name: WARRA Lat: -43.06 Lon: 146.70 Height: 495.0 m
Data from the previous 72 hours. | See also: Recent months at Warra
Date/Time
EDT
Temp
°C
App
Temp
°C
Dew
Point
Rel
Hum
%
Delta-T
°C
Wind Press
QNH
hPa
Press
MSL
hPa
Rain
since 9 am
mm
Dir
 
Spd
km/h
Gust
km/h
Spd
kts
Gust
kts
02/04:00pm 16.6 14.2 7.0 53 4.9 NNW 9 19 5 10 - - 0.0
02/03:30pm 16.2 13.5 7.4 56 4.5 N 11 19 6 10 - - 0.0
02/03:00pm 16.2 14.1 8.2 59 4.2 N 9 13 5 7 - - 0.0
02/02:30pm 15.7 13.5 7.7 59 4.1 NNE 9 15 5 8 - - 0.0
02/02:00pm 15.3 13.1 7.8 61 3.8 N 9 15 5 8 - - 0.0
02/01:30pm 13.9 11.7 7.7 66 3.1 E 9 17 5 9 - - 0.0
02/01:00pm 12.7 10.2 6.5 66 3.0 SE 9 17 5 9 - - 0.0
02/12:30pm 12.4 10.3 6.7 68 2.8 SE 7 11 4 6 - - 0.0
02/12:00pm 11.2 9.0 5.5 68 2.7 E 6 13 3 7 - - 0.0
02/11:30am 10.1 7.7 5.3 72 2.2 SE 7 11 4 6 - - 0.0
02/11:00am 10.4 7.9 4.8 68 2.6 ENE 7 13 4 7 - - 0.0
02/10:30am 10.3 7.4 4.9 69 2.5 NNE 9 15 5 8 - - 0.0
02/10:00am 9.4 6.5 4.8 73 2.1 NE 9 13 5 7 - - 0.0
02/09:30am 8.9 6.4 4.5 74 2.0 NNE 7 11 4 6 - - 0.0
02/09:00am 8.8 6.3 5.0 77 1.7 NE 7 7 4 4 - - 1.0
02/08:30am 8.4 6.0 4.4 76 1.8 NNW 6 9 3 5 - - 1.0
02/08:00am 6.5 3.5 4.2 85 1.0 NW 9 15 5 8 - - 1.0
02/07:30am 4.4 1.3 3.7 95 0.3 NNW 9 13 5 7 - - 1.0
02/07:00am 3.1 -0.6 2.2 94 0.4 NW 11 15 6 8 - - 1.0
02/06:30am 2.9 -0.8 2.2 95 0.3 NW 11 17 6 9 - - 1.0
02/06:00am 3.1 -0.6 2.4 95 0.3 NW 11 15 6 8 - - 1.0
02/05:30am 2.8 -0.9 2.4 97 0.2 NW 11 15 6 8 - - 1.0
02/05:00am 2.7 -1.0 2.6 99 0.0 NW 11 15 6 8 - - 1.0
02/04:30am 1.3 -2.3 0.7 96 0.2 NW 9 13 5 7 - - 1.0
02/04:00am 2.2 -1.3 1.3 94 0.4 NW 9 11 5 6 - - 1.0
02/03:30am 2.9 -0.9 1.9 93 0.4 NW 11 13 6 7 - - 1.0
02/03:00am 2.9 -0.5 1.9 93 0.4 WNW 9 15 5 8 - - 1.0
02/02:30am 2.7 -0.7 1.8 94 0.4 WNW 9 13 5 7 - - 1.0
02/02:00am 3.0 -0.9 1.4 89 0.6 NW 11 13 6 7 - - 1.0
02/01:30am 3.7 0.3 1.6 86 0.8 WNW 9 13 5 7 - - 1.0
02/01:00am 3.8 0.0 1.7 86 0.9 WNW 11 19 6 10 - - 1.0
02/12:30am 5.0 1.3 2.2 82 1.2 WNW 11 15 6 8 - - 1.0
02/12:00am 5.5 0.6 2.3 80 1.3 W 17 28 9 15 - - 1.0
 
Date/Time
EDT
Temp
°C
App
Temp
°C
Dew
Point
Rel
Hum
%
Delta-T
°C
Wind Press
QNH
hPa
Press
MSL
hPa
Rain
since 9 am
mm
Dir
 
Spd
km/h
Gust
km/h
Spd
kts
Gust
kts
01/11:30pm 5.7 1.6 2.2 78 1.5 W 13 20 7 11 - - 1.0
01/11:00pm 6.1 2.1 2.6 78 1.5 W 13 19 7 10 - - 1.0
01/10:30pm 6.3 2.3 2.6 77 1.6 W 13 24 7 13 - - 1.0
01/10:00pm 6.6 2.8 4.1 84 1.1 WSW 13 20 7 11 - - 1.0
01/09:30pm 7.2 3.9 4.7 84 1.1 W 11 17 6 9 - - 1.0
01/09:00pm 7.8 4.6 5.1 83 1.2 WSW 11 22 6 12 - - 1.0
01/08:30pm 8.2 5.9 5.5 83 1.3 WSW 7 20 4 11 - - 1.0
01/08:00pm 8.5 4.9 5.1 79 1.6 W 13 20 7 11 - - 1.0
01/07:30pm 8.5 5.3 4.9 78 1.6 WNW 11 15 6 8 - - 1.0
01/07:00pm 9.4 6.1 4.4 71 2.3 W 11 20 6 11 - - 1.0
01/06:30pm 10.6 7.7 4.9 68 2.7 WNW 9 13 5 7 - - 1.0
01/06:00pm 10.8 7.4 5.8 71 2.4 WNW 13 26 7 14 - - 1.0
01/05:30pm 10.9 8.2 7.4 79 1.7 WSW 11 20 6 11 - - 1.0
01/05:00pm 10.5 6.6 7.2 80 1.6 WNW 17 30 9 16 - - 1.0
01/04:30pm 10.9 7.7 8.3 84 1.3 W 15 28 8 15 - - 1.0
01/04:00pm 11.4 8.1 6.3 71 2.5 W 13 33 7 18 - - 1.0
01/03:30pm 12.6 10.0 9.2 80 1.8 W 13 24 7 13 - - 1.0
01/03:00pm 10.1 7.1 9.3 95 0.4 W 15 28 8 15 - - 1.0
01/02:30pm 11.4 8.9 9.7 89 0.9 WSW 13 24 7 13 - - 0.8
01/02:00pm 11.1 7.9 8.5 84 1.3 WSW 15 24 8 13 - - 0.8
01/01:30pm 10.7 7.3 9.0 89 0.9 WSW 17 30 9 16 - - 0.8
01/01:00pm 12.3 9.5 9.9 85 1.3 WSW 15 32 8 17 - - 0.4
01/12:30pm 10.9 8.9 8.5 85 1.2 WSW 9 26 5 14 - - 0.4
01/12:00pm 11.3 8.5 8.7 84 1.3 WSW 13 26 7 14 - - 0.4
01/11:30am 13.0 9.8 8.5 74 2.3 WSW 15 26 8 14 - - 0.2
01/11:00am 11.2 8.2 7.7 79 1.7 WSW 13 26 7 14 - - 0.2
01/10:30am 11.2 8.4 8.6 84 1.3 WSW 13 24 7 13 - - 0.2
01/10:00am 9.7 6.1 8.3 91 0.7 WSW 17 32 9 17 - - 0.2
01/09:30am 9.9 6.9 9.1 95 0.4 WSW 15 28 8 15 - - 0.0
01/09:00am 9.4 6.3 8.9 97 0.3 W 15 26 8 14 - - 9.2
01/08:30am 8.7 5.2 8.7 100 0.0 WSW 17 32 9 17 - - 9.0
01/08:00am 8.7 6.3 8.6 99 0.0 WSW 11 20 6 11 - - 9.0
01/07:30am 8.6 4.7 8.5 99 0.0 WSW 19 32 10 17 - - 9.0
01/07:00am 8.7 4.6 8.7 100 0.0 WSW 20 37 11 20 - - 9.0
01/06:30am 9.0 5.2 8.9 99 0.1 WSW 19 33 10 18 - - 9.0
01/06:00am 9.4 6.7 8.9 97 0.3 W 13 22 7 12 - - 8.0
01/05:30am 9.8 5.8 8.4 91 0.7 W 19 39 10 21 - - 7.2
01/05:00am 9.8 5.8 8.4 91 0.7 W 19 37 10 20 - - 7.2
01/04:30am 10.0 5.8 8.3 89 0.8 W 20 35 11 19 - - 7.2
01/04:00am 9.9 5.6 8.0 88 0.9 WNW 20 43 11 23 - - 7.2
01/03:30am 10.2 6.1 7.8 85 1.2 W 19 41 10 22 - - 7.2
01/03:00am 10.4 7.5 8.0 85 1.2 W 13 26 7 14 - - 7.2
01/02:30am 10.3 7.9 8.6 89 0.9 WSW 11 24 6 13 - - 7.2
01/02:00am 10.9 5.9 8.0 82 1.4 WNW 24 43 13 23 - - 7.0
01/01:30am 11.2 6.1 7.5 78 1.8 WNW 24 43 13 23 - - 7.0
01/01:18am 11.2 5.4 7.9 80 1.6 WNW 28 48 15 26 - - 7.0
01/01:00am 11.5 5.9 8.7 83 1.4 WNW 28 44 15 24 - - 7.0
01/12:38am 11.8 6.1 8.5 80 1.7 WNW 28 56 15 30 - - 7.0
01/12:30am 11.7 6.5 8.7 82 1.5 WNW 26 52 14 28 - - 7.0
01/12:21am 11.9 6.3 8.9 82 1.5 WNW 28 46 15 25 - - 7.0
01/12:00am 12.1 7.1 8.2 77 2.0 WNW 24 50 13 27 - - 7.0
 
Date/Time
EDT
Temp
°C
App
Temp
°C
Dew
Point
Rel
Hum
%
Delta-T
°C
Wind Press
QNH
hPa
Press
MSL
hPa
Rain
since 9 am
mm
Dir
 
Spd
km/h
Gust
km/h
Spd
kts
Gust
kts
28/11:51pm 12.3 6.6 8.4 77 2.0 WNW 28 48 15 26 - - 7.0
28/11:30pm 12.3 7.8 8.4 77 2.0 WNW 22 39 12 21 - - 7.0
28/11:00pm 13.0 8.8 9.8 81 1.7 W 22 41 12 22 - - 7.0
28/10:30pm 14.0 9.9 10.2 78 2.0 WNW 22 46 12 25 - - 7.0
28/10:00pm 14.4 10.0 11.6 83 1.5 WNW 26 46 14 25 - - 7.0
28/09:39pm 14.9 10.2 11.9 82 1.7 WNW 28 50 15 27 - - 7.0
28/09:30pm 15.1 12.1 11.9 81 1.8 WNW 19 46 10 25 - - 7.0
28/09:00pm 15.3 12.7 11.9 80 1.9 NW 17 35 9 19 - - 7.0
28/08:30pm 15.4 11.6 12.5 83 1.6 NW 24 43 13 23 - - 7.0
28/08:00pm 15.4 13.5 12.9 85 1.4 NW 15 32 8 17 - - 7.0
28/07:30pm 15.5 13.0 13.5 88 1.1 NW 19 28 10 15 - - 7.0
28/07:00pm 15.3 14.2 14.2 93 0.6 NNW 13 28 7 15 - - 7.0
28/06:30pm 15.4 14.1 14.8 96 0.4 NNW 15 30 8 16 - - 7.0
28/06:00pm 15.4 13.9 15.4 100 0.0 NW 17 28 9 15 - - 7.0
28/05:30pm 15.1 13.0 15.1 100 0.0 NW 20 35 11 19 - - 6.8
28/05:00pm 14.6 13.6 14.6 100 0.0 N 13 35 7 19 - - 6.8
28/04:30pm 14.7 14.1 14.7 100 0.0 NNW 11 20 6 11 - - 6.2
28/04:00pm 14.3 12.8 14.3 100 0.0 NNW 15 26 8 14 - - 6.0
28/03:30pm 14.7 13.7 14.7 100 0.0 NNW 13 19 7 10 - - 5.6
28/03:00pm 13.1 12.0 13.1 100 0.0 N 11 24 6 13 - - 5.4
28/02:30pm 13.1 12.7 13.1 100 0.0 NNE 7 13 4 7 - - 5.0
28/02:00pm 11.9 10.8 11.9 100 0.0 N 9 15 5 8 - - 5.0
28/01:30pm 11.6 10.4 11.6 100 0.0 N 9 17 5 9 - - 4.6
28/01:00pm 11.6 10.0 11.6 100 0.0 NNW 11 17 6 9 - - 4.2
28/12:30pm 12.2 11.6 12.2 100 0.0 NNW 7 11 4 6 - - 4.0
28/12:00pm 10.7 8.3 10.2 97 0.3 NW 13 17 7 9 - - 3.4
28/11:30am 11.3 9.8 9.2 87 1.1 NW 7 13 4 7 - - 1.2
28/11:00am 12.5 10.9 8.8 78 1.9 NW 7 11 4 6 - - 0.0
28/10:30am 12.4 10.3 8.3 76 2.1 NNW 9 13 5 7 - - 0.0
28/10:00am 10.8 9.1 8.4 85 1.2 N 7 11 4 6 - - 0.0
28/09:30am 10.7 8.5 7.8 82 1.4 NE 9 13 5 7 - - 0.0
28/09:00am 11.4 9.3 8.1 80 1.7 ENE 9 17 5 9 - - 0.0
28/08:30am 10.7 8.4 7.6 81 1.5 NE 9 13 5 7 - - 0.0
28/08:00am 9.5 7.2 7.6 88 0.9 NE 9 17 5 9 - - 0.0
28/07:30am 7.7 5.8 6.6 93 0.5 NE 6 9 3 5 - - 0.0
28/07:00am 8.2 5.8 6.8 91 0.7 ENE 9 15 5 8 - - 0.0
28/06:30am 8.1 5.6 6.6 90 0.7 ENE 9 13 5 7 - - 0.0
28/06:00am 8.3 5.9 6.8 90 0.7 ENE 9 13 5 7 - - 0.0
28/05:30am 8.2 6.1 6.7 90 0.7 ENE 7 13 4 7 - - 0.0
28/05:00am 8.1 5.6 6.7 91 0.7 ENE 9 15 5 8 - - 0.0
28/04:30am 8.1 6.2 6.6 90 0.7 E 6 9 3 5 - - 0.0
28/04:00am 8.1 5.9 6.4 89 0.8 E 7 11 4 6 - - 0.0
28/03:30am 8.2 5.6 6.3 88 0.9 E 9 13 5 7 - - 0.0
28/03:00am 8.1 5.9 6.2 88 0.9 NE 7 9 4 5 - - 0.0
28/02:30am 8.1 6.2 6.6 90 0.7 NE 6 9 3 5 - - 0.0
28/02:00am 8.1 6.2 6.6 90 0.7 NE 6 7 3 4 - - 0.0
28/01:30am 8.4 6.5 6.9 90 0.7 E 6 7 3 4 - - 0.0
28/01:00am 8.5 6.6 6.8 89 0.8 ESE 6 9 3 5 - - 0.0
28/12:30am 8.7 8.0 6.8 88 0.9 CALM 0 0 0 0 - - 0.0
28/12:00am 8.8 8.1 7.1 89 0.8 CALM 0 0 0 0 - - 0.0
 
Date/Time
EDT
Temp
°C
App
Temp
°C
Dew
Point
Rel
Hum
%
Delta-T
°C
Wind Press
QNH
hPa
Press
MSL
hPa
Rain
since 9 am
mm
Dir
 
Spd
km/h
Gust
km/h
Spd
kts
Gust
kts
27/11:30pm 8.9 7.4 6.9 87 1.0 SSE 4 7 2 4 - - 0.0
27/11:00pm 9.2 8.6 7.3 88 0.9 CALM 0 0 0 0 - - 0.0
27/10:30pm 9.2 8.6 7.2 87 1.0 CALM 0 0 0 0 - - 0.0
27/10:00pm 9.3 8.2 6.9 85 1.2 S 2 9 1 5 - - 0.0
27/09:30pm 9.5 7.6 6.8 83 1.3 S 6 7 3 4 - - 0.0
27/09:00pm 9.7 7.2 6.4 80 1.6 S 9 13 5 7 - - 0.0
27/08:30pm 10.2 8.2 6.4 77 1.8 SSW 6 9 3 5 - - 0.0
27/08:00pm 10.6 8.4 6.4 75 2.0 SSW 7 9 4 5 - - 0.0
27/07:30pm 10.7 7.3 5.9 72 2.3 WSW 13 20 7 11 - - 0.0
27/07:00pm 11.6 7.9 6.1 69 2.7 WSW 15 24 8 13 - - 0.0
27/06:30pm 11.7 8.4 6.2 69 2.7 SW 13 24 7 13 - - 0.0
27/06:00pm 12.0 8.3 6.1 67 2.9 WSW 15 24 8 13 - - 0.0
27/05:30pm 12.7 8.7 6.5 66 3.0 WSW 17 26 9 14 - - 0.0
27/05:00pm 13.4 9.1 7.2 66 3.1 WSW 19 33 10 18 - - 0.0
27/04:30pm 12.6 9.0 6.9 68 2.8 SW 15 24 8 13 - - 0.0

Other Formats:

Comma delimited format used in spreadsheet applications
http://www.bom.gov.au/fwo/IDT60801/IDT60801.95962.axf

JavaScript Object Notation format (JSON) in row-major order
http://www.bom.gov.au/fwo/IDT60801/IDT60801.95962.json